createdAt,value
2018-08-30T00:00:44.752Z,10.13
2018-08-30T00:03:14.309Z,9.90
2018-08-30T00:05:44.336Z,9.40
2018-08-30T00:08:13.482Z,9.73
2018-08-30T00:10:42.210Z,9.37
2018-08-30T00:13:10.929Z,9.23
2018-08-30T00:15:40.397Z,9.10
2018-08-30T00:18:09.128Z,9.13
2018-08-30T00:20:37.846Z,9.40
2018-08-30T00:23:06.613Z,9.00
2018-08-30T00:25:35.332Z,8.50
2018-08-30T00:28:04.040Z,8.37
2018-08-30T00:30:32.749Z,8.50
2018-08-30T00:33:01.418Z,8.97
2018-08-30T00:35:30.152Z,8.80
2018-08-30T00:37:58.838Z,8.53
2018-08-30T00:40:27.541Z,9.60
2018-08-30T00:42:56.316Z,9.93
2018-08-30T00:45:24.993Z,8.90
2018-08-30T00:47:53.765Z,8.33
2018-08-30T00:50:22.438Z,9.53
2018-08-30T00:52:51.121Z,9.27
2018-08-30T00:55:19.788Z,8.83
2018-08-30T00:57:48.470Z,8.50
2018-08-30T01:00:17.117Z,9.30
2018-08-30T01:02:45.849Z,7.97
2018-08-30T01:05:14.522Z,10.00
2018-08-30T01:07:43.328Z,8.93
2018-08-30T01:10:12.031Z,9.07
2018-08-30T01:12:46.646Z,10.10
2018-08-30T01:15:15.314Z,8.90
2018-08-30T01:17:44.017Z,8.87
2018-08-30T01:20:13.500Z,10.33
2018-08-30T01:22:42.192Z,9.60
2018-08-30T01:25:11.016Z,8.90
2018-08-30T01:27:40.202Z,9.73
2018-08-30T01:30:09.237Z,10.00
2018-08-30T01:32:38.035Z,10.77
2018-08-30T01:35:06.785Z,9.93
2018-08-30T01:37:35.489Z,10.00
2018-08-30T01:40:04.192Z,10.60
2018-08-30T01:42:32.907Z,10.10
2018-08-30T01:45:01.658Z,9.93
2018-08-30T01:47:30.322Z,10.10
2018-08-30T01:49:59.065Z,10.67
2018-08-30T01:52:27.825Z,9.93
2018-08-30T01:54:56.501Z,9.40
2018-08-30T01:57:25.226Z,10.87
2018-08-30T01:59:53.885Z,9.67
2018-08-30T02:02:22.580Z,9.43
2018-08-30T02:04:51.233Z,9.60
2018-08-30T02:07:20.001Z,9.10
2018-08-30T02:09:48.688Z,10.70
2018-08-30T02:12:17.309Z,9.43
2018-08-30T02:14:45.945Z,9.10
2018-08-30T02:17:14.667Z,10.97
2018-08-30T02:19:43.368Z,10.13
2018-08-30T02:22:12.088Z,10.63
2018-08-30T02:24:40.833Z,11.40
2018-08-30T02:27:09.544Z,11.30
2018-08-30T02:29:39.009Z,11.03
2018-08-30T02:32:07.741Z,10.10
2018-08-30T02:34:36.440Z,10.30
2018-08-30T02:37:05.175Z,9.80
2018-08-30T02:39:33.900Z,10.87
2018-08-30T02:42:02.607Z,9.87
2018-08-30T02:44:31.296Z,10.60
2018-08-30T02:47:00.028Z,10.30
2018-08-30T02:49:28.681Z,9.30
2018-08-30T02:51:57.423Z,9.10
2018-08-30T02:54:26.137Z,9.40
2018-08-30T02:56:54.833Z,9.23
2018-08-30T02:59:23.501Z,9.10
2018-08-30T03:01:52.289Z,9.97
2018-08-30T03:04:21.011Z,9.70
2018-08-30T03:06:49.732Z,9.80
2018-08-30T03:09:18.431Z,9.10
2018-08-30T03:11:47.156Z,9.03
2018-08-30T03:14:15.788Z,8.10
2018-08-30T03:16:44.982Z,9.20
2018-08-30T03:19:13.667Z,9.20
2018-08-30T03:21:42.369Z,8.17
2018-08-30T03:24:11.248Z,8.93
2018-08-30T03:26:39.916Z,8.30
2018-08-30T03:29:08.720Z,8.20
2018-08-30T03:31:37.404Z,8.40
2018-08-30T03:34:06.137Z,7.97
2018-08-30T03:36:34.825Z,7.60
2018-08-30T03:39:04.192Z,6.97
2018-08-30T03:41:32.858Z,6.73
2018-08-30T03:44:01.555Z,6.60
2018-08-30T03:46:30.897Z,7.43
2018-08-30T03:48:59.590Z,6.33
2018-08-30T03:51:28.449Z,6.30
2018-08-30T03:53:57.151Z,5.90
2018-08-30T03:56:25.818Z,5.27
2018-08-30T03:58:54.496Z,5.67
2018-08-30T04:01:23.177Z,5.87
2018-08-30T04:03:51.880Z,5.87
2018-08-30T04:06:20.581Z,4.60
2018-08-30T04:08:49.313Z,4.57
2018-08-30T04:11:18.031Z,4.53
2018-08-30T04:13:46.737Z,4.17
2018-08-30T04:16:15.401Z,4.70
2018-08-30T04:18:44.100Z,4.50
2018-08-30T04:21:13.132Z,3.50
2018-08-30T04:23:41.744Z,3.60
2018-08-30T04:26:10.373Z,4.07
2018-08-30T04:28:39.168Z,3.40
2018-08-30T04:31:07.856Z,4.20
2018-08-30T04:33:36.536Z,4.10
2018-08-30T04:36:05.251Z,3.30
2018-08-30T04:38:34.012Z,3.33
2018-08-30T04:41:02.709Z,3.57
2018-08-30T04:43:31.364Z,3.80
2018-08-30T04:46:00.059Z,3.47
2018-08-30T04:48:28.736Z,3.90
2018-08-30T04:50:57.370Z,3.70
2018-08-30T04:53:26.088Z,3.63
2018-08-30T04:55:54.732Z,4.00
2018-08-30T04:58:23.497Z,3.20
2018-08-30T05:00:52.140Z,3.07
2018-08-30T05:03:20.811Z,2.70
2018-08-30T05:05:49.561Z,3.23
2018-08-30T05:08:18.328Z,2.90
2018-08-30T05:10:47.101Z,2.87
2018-08-30T05:13:15.738Z,3.13
2018-08-30T05:15:44.461Z,2.90
2018-08-30T05:18:13.208Z,2.63
2018-08-30T05:20:41.853Z,3.30
2018-08-30T05:23:10.540Z,2.93
2018-08-30T05:25:39.248Z,3.30
2018-08-30T05:28:08.327Z,2.93
2018-08-30T05:30:37.141Z,2.90
2018-08-30T05:33:05.996Z,3.00
2018-08-30T05:35:34.716Z,3.03
2018-08-30T05:38:03.376Z,3.10
2018-08-30T05:40:32.816Z,2.60
2018-08-30T05:43:01.496Z,3.00
2018-08-30T05:45:30.228Z,2.80
2018-08-30T05:47:58.917Z,3.00
2018-08-30T05:50:27.666Z,2.50
2018-08-30T05:52:56.356Z,2.50
2018-08-30T05:55:24.985Z,2.70
2018-08-30T05:57:53.652Z,2.60
2018-08-30T06:00:22.321Z,2.70
2018-08-30T06:02:51.665Z,2.43
2018-08-30T06:05:20.317Z,2.70
2018-08-30T06:07:48.985Z,2.43
2018-08-30T06:10:17.650Z,2.80
2018-08-30T06:12:46.385Z,2.90
2018-08-30T06:15:15.114Z,2.60
2018-08-30T06:17:43.821Z,2.90
2018-08-30T06:20:12.721Z,2.43
2018-08-30T06:22:41.374Z,2.73
2018-08-30T06:25:11.056Z,2.80
2018-08-30T06:27:39.703Z,3.00
2018-08-30T06:30:08.462Z,2.87
2018-08-30T06:32:37.259Z,2.83
2018-08-30T06:35:06.014Z,2.90
2018-08-30T06:37:34.771Z,3.10
2018-08-30T06:40:03.473Z,2.60
2018-08-30T06:42:32.154Z,3.00
2018-08-30T06:45:00.905Z,3.03
2018-08-30T06:47:29.581Z,2.63
2018-08-30T06:49:58.297Z,3.50
2018-08-30T06:52:27.020Z,2.60
2018-08-30T06:54:56.065Z,2.90
2018-08-30T06:57:24.808Z,3.60
2018-08-30T06:59:53.526Z,2.87
2018-08-30T07:02:22.205Z,2.70
2018-08-30T07:04:50.995Z,3.10
2018-08-30T07:07:19.666Z,2.73
2018-08-30T07:09:48.447Z,2.90
2018-08-30T07:12:17.189Z,2.60
2018-08-30T07:14:46.073Z,3.40
2018-08-30T07:17:14.686Z,2.70
2018-08-30T07:19:43.309Z,2.47
2018-08-30T07:22:14.302Z,2.17
2018-08-30T07:24:42.972Z,2.40
2018-08-30T07:27:11.795Z,2.93
2018-08-30T07:29:40.504Z,2.33
2018-08-30T07:32:09.736Z,3.00
2018-08-30T07:34:38.604Z,2.90
2018-08-30T07:37:07.361Z,2.90
2018-08-30T07:39:36.006Z,2.30
2018-08-30T07:42:05.032Z,2.60
2018-08-30T07:44:33.856Z,2.20
2018-08-30T07:47:02.825Z,2.50
2018-08-30T07:49:31.497Z,2.77
2018-08-30T07:52:00.232Z,2.50
2018-08-30T07:54:28.990Z,2.13
2018-08-30T07:56:58.250Z,2.70
2018-08-30T07:59:26.982Z,2.50
2018-08-30T08:01:57.476Z,2.73
2018-08-30T08:04:26.212Z,2.30
2018-08-30T08:06:54.897Z,2.17
2018-08-30T08:09:23.607Z,2.30
2018-08-30T08:11:52.370Z,2.20
2018-08-30T08:14:21.101Z,2.90
2018-08-30T08:16:49.816Z,2.80
2018-08-30T08:19:18.560Z,2.23
2018-08-30T08:21:47.322Z,2.50
2018-08-30T08:24:16.027Z,2.83
2018-08-30T08:26:44.692Z,2.10
2018-08-30T08:29:13.600Z,2.20
2018-08-30T08:31:42.603Z,2.67
2018-08-30T08:34:14.030Z,2.20
2018-08-30T08:36:43.433Z,2.27
2018-08-30T08:39:12.868Z,2.00
2018-08-30T08:41:42.110Z,2.60
2018-08-30T08:44:11.547Z,2.37
2018-08-30T08:46:40.438Z,2.33
2018-08-30T08:49:10.157Z,2.30
2018-08-30T08:51:39.173Z,3.10
2018-08-30T08:54:07.922Z,3.43
2018-08-30T08:56:36.720Z,2.87
2018-08-30T08:59:05.507Z,2.30
2018-08-30T09:01:39.597Z,2.30
2018-08-30T09:04:08.274Z,2.10
2018-08-30T09:06:37.191Z,2.83
2018-08-30T09:09:08.388Z,2.13
2018-08-30T09:11:37.089Z,2.60
2018-08-30T09:14:05.989Z,2.07
2018-08-30T09:16:34.712Z,2.20
2018-08-30T09:19:03.512Z,2.37
2018-08-30T09:21:32.560Z,1.90
2018-08-30T09:24:01.260Z,2.03
2018-08-30T09:26:29.976Z,1.70
2018-08-30T09:28:58.637Z,1.70
2018-08-30T09:31:27.358Z,2.20
2018-08-30T09:33:56.108Z,2.60
2018-08-30T09:36:24.732Z,2.00
2018-08-30T09:38:53.457Z,2.33
2018-08-30T09:41:22.117Z,2.03
2018-08-30T09:43:50.955Z,2.00
2018-08-30T09:46:19.589Z,1.70
2018-08-30T09:48:48.267Z,2.10
2018-08-30T09:51:16.940Z,1.60
2018-08-30T09:53:45.875Z,1.87
2018-08-30T09:56:14.629Z,2.00
2018-08-30T09:58:43.374Z,1.90
2018-08-30T10:03:23.953Z,1.83
2018-08-30T10:05:52.744Z,2.00
2018-08-30T10:08:22.190Z,1.90
2018-08-30T10:10:50.849Z,1.70
2018-08-30T10:13:19.722Z,1.73
2018-08-30T10:15:48.843Z,1.73
2018-08-30T10:18:17.859Z,2.00
2018-08-30T10:20:46.805Z,1.90
2018-08-30T10:23:16.168Z,1.87
2018-08-30T10:25:45.183Z,2.20
2018-08-30T10:28:13.850Z,1.57
2018-08-30T10:30:42.594Z,1.97
2018-08-30T10:33:11.278Z,1.57
2018-08-30T10:35:40.006Z,1.63
2018-08-30T10:38:08.673Z,1.50
2018-08-30T10:40:40.388Z,1.60
2018-08-30T10:43:09.332Z,1.87
2018-08-30T10:45:38.636Z,1.80
2018-08-30T10:48:07.589Z,2.10
2018-08-30T10:50:36.326Z,1.90
2018-08-30T10:53:05.103Z,1.97
2018-08-30T10:55:34.472Z,1.73
2018-08-30T10:58:03.366Z,2.27
2018-08-30T11:00:34.101Z,2.07
2018-08-30T11:03:02.953Z,1.63
2018-08-30T11:05:32.222Z,1.93
2018-08-30T11:08:05.547Z,1.50
2018-08-30T11:10:35.126Z,2.00
2018-08-30T11:13:04.761Z,2.40
2018-08-30T11:15:33.258Z,2.40
2018-08-30T11:18:01.980Z,2.10
2018-08-30T11:20:30.663Z,2.03
2018-08-30T11:22:59.283Z,2.20
2018-08-30T11:25:27.933Z,2.03
2018-08-30T11:27:56.698Z,2.17
2018-08-30T11:30:26.482Z,2.00
2018-08-30T11:32:55.389Z,2.30
2018-08-30T11:35:24.252Z,2.10
2018-08-30T11:37:53.240Z,2.43
2018-08-30T11:40:22.065Z,2.40
2018-08-30T11:42:51.070Z,2.37
2018-08-30T11:45:20.084Z,2.40
2018-08-30T11:47:49.701Z,2.10
2018-08-30T11:50:18.481Z,1.93
2018-08-30T11:52:48.011Z,1.97
2018-08-30T11:55:16.745Z,1.87
2018-08-30T11:57:45.693Z,2.13
2018-08-30T12:00:15.767Z,2.50
2018-08-30T12:02:46.075Z,2.00
2018-08-30T12:05:15.636Z,2.00
2018-08-30T12:07:46.332Z,2.30
2018-08-30T12:10:17.736Z,1.90
2018-08-30T12:12:47.223Z,2.20
2018-08-30T12:15:16.180Z,2.00
2018-08-30T12:17:45.637Z,2.30
2018-08-30T12:20:15.252Z,1.70
2018-08-30T12:22:45.448Z,2.53
2018-08-30T12:25:14.800Z,1.67
2018-08-30T12:27:44.332Z,1.93
2018-08-30T12:30:13.382Z,1.97
2018-08-30T12:32:42.282Z,2.00
2018-08-30T12:35:13.200Z,1.43
2018-08-30T12:37:41.939Z,1.87
2018-08-30T12:40:10.673Z,1.63
2018-08-30T12:42:40.348Z,1.67
2018-08-30T12:45:10.546Z,1.90
2018-08-30T12:47:39.506Z,1.80
2018-08-30T12:50:08.443Z,2.23
2018-08-30T12:52:37.142Z,2.33
2018-08-30T12:55:06.247Z,2.07
2018-08-30T12:57:35.925Z,2.20
2018-08-30T13:00:04.922Z,1.90
2018-08-30T13:02:33.823Z,2.00
2018-08-30T13:05:02.699Z,1.80
2018-08-30T13:07:32.663Z,1.70
2018-08-30T13:10:01.634Z,1.80
2018-08-30T13:12:39.862Z,2.17
2018-08-30T13:15:09.270Z,2.33
2018-08-30T13:17:38.554Z,2.20
2018-08-30T13:20:07.588Z,2.30
2018-08-30T13:22:36.449Z,2.53
2018-08-30T13:25:06.623Z,1.90
2018-08-30T13:27:36.057Z,2.00
2018-08-30T13:30:05.723Z,2.17
2018-08-30T13:32:35.245Z,1.90
2018-08-30T13:35:04.507Z,2.00
2018-08-30T13:37:33.984Z,1.70
2018-08-30T13:40:03.057Z,2.10
2018-08-30T13:42:31.834Z,1.60
2018-08-30T13:45:00.843Z,1.60
2018-08-30T13:47:30.516Z,1.97
2018-08-30T13:50:00.150Z,1.70
2018-08-30T13:52:29.342Z,2.20
2018-08-30T13:54:58.078Z,2.60
2018-08-30T13:57:27.709Z,2.70
2018-08-30T13:59:56.793Z,2.50
2018-08-30T14:02:25.808Z,2.80
2018-08-30T14:04:55.090Z,2.57
2018-08-30T14:07:24.307Z,3.07
2018-08-30T14:09:53.895Z,2.40
2018-08-30T14:12:23.512Z,2.60
2018-08-30T14:14:53.932Z,3.17
2018-08-30T14:17:22.490Z,3.40
2018-08-30T14:19:52.355Z,3.17
2018-08-30T14:22:21.314Z,2.97
2018-08-30T14:24:50.349Z,3.20
2018-08-30T14:27:20.071Z,3.47
2018-08-30T14:29:48.932Z,3.40
2018-08-30T14:32:17.784Z,3.77
2018-08-30T14:34:47.904Z,3.70
2018-08-30T14:37:17.003Z,3.60
2018-08-30T14:39:46.513Z,3.00
2018-08-30T14:42:15.165Z,3.23
2018-08-30T14:44:43.990Z,3.63
2018-08-30T14:47:13.023Z,2.80
2018-08-30T14:49:41.698Z,3.40
2018-08-30T14:52:10.653Z,2.93
2018-08-30T14:54:39.597Z,3.20
2018-08-30T14:57:08.970Z,3.37
2018-08-30T14:59:37.502Z,3.50
2018-08-30T15:02:06.236Z,3.40
2018-08-30T15:04:35.490Z,3.63
2018-08-30T15:07:04.443Z,3.70
2018-08-30T15:09:33.104Z,3.80
2018-08-30T15:12:01.881Z,4.07
2018-08-30T15:14:30.519Z,4.43
2018-08-30T15:16:59.431Z,5.00
2018-08-30T15:19:28.460Z,4.80
2018-08-30T15:21:57.109Z,4.63
2018-08-30T15:24:26.649Z,4.80
2018-08-30T15:26:55.663Z,4.03
2018-08-30T15:29:24.101Z,4.80
2018-08-30T15:31:53.497Z,4.57
2018-08-30T15:34:22.436Z,4.23
2018-08-30T15:36:51.517Z,4.60
2018-08-30T15:39:20.454Z,4.97
2018-08-30T15:41:49.835Z,4.27
2018-08-30T15:44:18.923Z,4.70
2018-08-30T15:46:48.455Z,4.60
2018-08-30T15:49:17.317Z,4.13
2018-08-30T15:51:46.646Z,4.73
2018-08-30T15:54:15.687Z,3.70
2018-08-30T15:56:44.972Z,4.60
2018-08-30T15:59:14.024Z,4.27
2018-08-30T16:01:42.972Z,5.03
2018-08-30T16:04:11.663Z,4.47
2018-08-30T16:06:40.373Z,4.70
2018-08-30T16:09:10.629Z,5.17
2018-08-30T16:11:39.306Z,5.20
2018-08-30T16:14:08.016Z,4.83
2018-08-30T16:16:36.781Z,5.17
2018-08-30T16:19:05.568Z,4.33
2018-08-30T16:21:34.295Z,4.63
2018-08-30T16:24:03.031Z,4.70
2018-08-30T16:26:31.722Z,4.83
2018-08-30T16:29:00.535Z,4.53
2018-08-30T16:31:29.286Z,5.20
2018-08-30T16:33:57.993Z,4.77
2018-08-30T16:36:26.704Z,5.13
2018-08-30T16:38:55.430Z,5.23
2018-08-30T16:41:24.166Z,5.13
2018-08-30T16:43:52.827Z,5.03
2018-08-30T16:46:21.583Z,6.00
2018-08-30T16:48:50.758Z,5.77
2018-08-30T16:51:19.430Z,4.83
2018-08-30T16:53:48.197Z,6.20
2018-08-30T16:56:17.042Z,6.20
2018-08-30T16:58:45.698Z,6.50
2018-08-30T17:01:14.400Z,6.43
2018-08-30T17:03:43.192Z,6.73
2018-08-30T17:06:11.919Z,6.80
2018-08-30T17:08:40.622Z,6.80
2018-08-30T17:11:09.416Z,7.53
2018-08-30T17:13:38.061Z,7.40
2018-08-30T17:16:06.836Z,7.90
2018-08-30T17:18:35.636Z,8.50
2018-08-30T17:21:04.389Z,8.60
2018-08-30T17:23:33.221Z,8.80
2018-08-30T17:26:01.914Z,8.60
2018-08-30T17:28:30.689Z,9.30
2018-08-30T17:30:59.426Z,8.97
2018-08-30T17:33:28.056Z,8.13
2018-08-30T17:35:56.745Z,8.43
2018-08-30T17:38:25.423Z,8.80
2018-08-30T17:40:54.216Z,8.17
2018-08-30T17:43:22.927Z,8.43
2018-08-30T17:45:52.252Z,9.10
2018-08-30T17:48:20.968Z,8.83
2018-08-30T17:50:49.705Z,9.13
2018-08-30T17:53:18.400Z,8.83
2018-08-30T17:55:47.213Z,8.20
2018-08-30T17:58:16.081Z,8.87
2018-08-30T18:00:44.912Z,9.57
2018-08-30T18:03:13.686Z,9.00
2018-08-30T18:05:42.430Z,10.00
2018-08-30T18:08:11.123Z,8.90
2018-08-30T18:10:39.799Z,8.37
2018-08-30T18:13:08.600Z,9.10
2018-08-30T18:15:37.276Z,8.00
2018-08-30T18:18:06.110Z,8.87
2018-08-30T18:20:34.779Z,7.80
2018-08-30T18:23:03.521Z,8.57
2018-08-30T18:25:32.227Z,8.70
2018-08-30T18:28:00.942Z,9.03
2018-08-30T18:30:29.643Z,8.93
2018-08-30T18:32:58.353Z,9.30
2018-08-30T18:35:27.006Z,8.10
2018-08-30T18:37:55.670Z,8.80
2018-08-30T18:40:24.472Z,9.20
2018-08-30T18:42:53.140Z,8.47
2018-08-30T18:45:21.892Z,8.20
2018-08-30T18:47:52.269Z,8.60
2018-08-30T18:50:21.149Z,8.37
2018-08-30T18:52:49.792Z,8.10
2018-08-30T18:55:18.487Z,8.30
2018-08-30T18:57:47.236Z,7.70
2018-08-30T19:00:16.055Z,7.60
2018-08-30T19:02:45.321Z,8.83
2018-08-30T19:05:14.515Z,8.27
2018-08-30T19:07:43.286Z,8.37
2018-08-30T19:10:12.316Z,8.13
2018-08-30T19:12:41.371Z,7.23
2018-08-30T19:15:15.420Z,8.30
2018-08-30T19:17:49.301Z,8.10
2018-08-30T19:20:18.373Z,6.77
2018-08-30T19:22:47.471Z,8.00
2018-08-30T19:25:20.537Z,8.33
2018-08-30T19:27:49.387Z,7.30
2018-08-30T19:30:23.394Z,8.00
2018-08-30T19:32:52.369Z,7.47
2018-08-30T19:35:26.525Z,8.90
2018-08-30T19:37:55.707Z,7.47
2018-08-30T19:40:29.769Z,9.10
2018-08-30T19:43:00.751Z,14.60
2018-08-30T19:45:30.309Z,8.73
2018-08-30T19:47:59.585Z,9.27
2018-08-30T19:50:29.059Z,8.10
2018-08-30T19:52:57.886Z,7.93
2018-08-30T19:55:26.656Z,8.33
2018-08-30T19:57:55.361Z,8.13
2018-08-30T20:00:24.537Z,8.10
2018-08-30T20:02:53.493Z,7.57
2018-08-30T20:05:22.298Z,8.33
2018-08-30T20:07:51.113Z,8.03
2018-08-30T20:10:19.913Z,7.47
2018-08-30T20:12:48.589Z,8.30
2018-08-30T20:15:17.392Z,8.20
2018-08-30T20:17:46.054Z,7.13
2018-08-30T20:20:14.729Z,7.60
2018-08-30T20:22:43.536Z,6.73
2018-08-30T20:25:12.221Z,7.70
2018-08-30T20:27:40.873Z,7.03
2018-08-30T20:30:09.641Z,7.40
2018-08-30T20:32:38.342Z,7.63
2018-08-30T20:35:07.179Z,7.43
2018-08-30T20:37:35.902Z,7.37
2018-08-30T20:40:04.743Z,6.80
2018-08-30T20:42:33.427Z,8.60
2018-08-30T20:45:02.065Z,7.50
2018-08-30T20:47:30.814Z,8.70
2018-08-30T20:49:59.543Z,7.93
2018-08-30T20:52:32.780Z,8.10
2018-08-30T20:55:01.534Z,8.67
2018-08-30T20:57:30.264Z,8.40
2018-08-30T20:59:59.389Z,6.63
2018-08-30T21:02:28.680Z,8.10
2018-08-30T21:04:57.378Z,7.40
2018-08-30T21:07:26.055Z,7.87
2018-08-30T21:09:55.354Z,7.60
2018-08-30T21:12:24.130Z,7.73
2018-08-30T21:14:52.835Z,7.77
2018-08-30T21:17:21.669Z,8.70
2018-08-30T21:19:50.398Z,8.50
2018-08-30T21:22:19.037Z,7.57
2018-08-30T21:24:47.756Z,8.10
2018-08-30T21:27:16.565Z,8.00
2018-08-30T21:29:45.281Z,7.63
2018-08-30T21:32:15.141Z,7.23
2018-08-30T21:34:43.872Z,7.60
2018-08-30T21:37:12.581Z,7.90
2018-08-30T21:39:42.158Z,7.50
2018-08-30T21:42:10.888Z,7.40
2018-08-30T21:44:39.676Z,8.27
2018-08-30T21:47:08.394Z,8.50
2018-08-30T21:49:37.179Z,8.00
2018-08-30T21:52:06.997Z,8.57
2018-08-30T21:54:37.669Z,8.37
2018-08-30T21:57:06.495Z,7.90
2018-08-30T21:59:35.764Z,8.47
2018-08-30T22:02:04.522Z,8.90
2018-08-30T22:04:33.262Z,8.20
2018-08-30T22:07:01.979Z,8.00
2018-08-30T22:26:48.087Z,8.70
2018-08-30T22:29:16.881Z,7.97
2018-08-30T22:31:45.654Z,8.33
2018-08-30T22:34:14.328Z,7.90
2018-08-30T22:36:43.010Z,8.03
2018-08-30T22:39:11.725Z,7.70
2018-08-30T22:58:56.239Z,7.63
2018-08-30T23:01:24.996Z,8.77
2018-08-30T23:03:53.800Z,6.90
2018-08-30T23:06:22.573Z,8.37
2018-08-30T23:08:51.385Z,7.53
2018-08-30T23:11:20.167Z,7.90
2018-08-30T23:13:48.940Z,7.20
2018-08-30T23:16:17.885Z,7.80
2018-08-30T23:18:46.650Z,7.67
2018-08-30T23:21:15.366Z,7.30
2018-08-30T23:23:44.092Z,7.23
2018-08-30T23:26:12.860Z,7.70
2018-08-30T23:28:41.576Z,7.00
2018-08-30T23:31:10.286Z,7.27
2018-08-30T23:33:38.936Z,7.67
2018-08-30T23:36:07.630Z,7.90
2018-08-30T23:38:36.373Z,7.43
2018-08-30T23:41:05.428Z,7.10
2018-08-30T23:43:34.145Z,7.83
2018-08-30T23:46:02.813Z,6.97
2018-08-30T23:48:31.508Z,7.00
2018-08-30T23:51:00.182Z,7.17
2018-08-30T23:53:28.888Z,6.77
2018-08-30T23:55:57.588Z,6.70
2018-08-30T23:58:37.396Z,7.50
